LFMV/AVN METAR and TAF weather

Enter ICAO airport designator
Station Type Date Time Source
LFMV METAR 2019/08/22 07:30 UTC NOAA

LFMV 220730Z AUTO 34010KT 320V020 9999 FEW068 22/13 Q1020 NOSIG


Station Type Date Time Source
LFMV Decoded METAR 2019/08/22 07:30 UTC NOAA

Station name not available
Aug 22, 2019 - 03:30 AM EDT / 2019.08.22 0730 UTC
Wind: from the NNW (340 degrees) at 12 MPH (10 KT) (direction variable):0
Visibility: greater than 7 mile(s):0
Sky conditions: mostly clear
Temperature: 71 F (22 C)
Dew Point: 55 F (13 C)
Relative Humidity: 56%
Pressure (altimeter): 30.12 in. Hg (1020 hPa)
ob: LFMV 220730Z AUTO 34010KT 320V020 9999 FEW068 22/13 Q1020 NOSIG
cycle: 7

Station Type Date Time Source
LFMV TAF 2019/08/22 03:00 UTC NOAA

TAF LFMV 220200Z 2203/2303 35012KT CAVOK
TEMPO 2207/2210 BKN050
TEMPO 2217/2223 35015G25KT

Example: see airport list